createdAt,value
2023-03-31T00:00:58.145Z,97813.69
2023-03-31T00:03:25.352Z,97811.34
2023-03-31T00:05:56.252Z,97808.22
2023-03-31T00:08:22.912Z,97808.97
2023-03-31T00:10:49.526Z,97804.69
2023-03-31T00:13:16.913Z,97800.75
2023-03-31T00:15:43.770Z,97791.69
2023-03-31T00:18:10.584Z,97785.38
2023-03-31T00:20:38.209Z,97778.69
2023-03-31T00:23:10.812Z,97777.50
2023-03-31T00:25:41.807Z,97779.13
2023-03-31T00:28:08.655Z,97774.41
2023-03-31T00:30:35.359Z,97779.16
2023-03-31T00:33:02.148Z,97776.81
2023-03-31T00:35:28.899Z,97764.97
2023-03-31T00:37:58.005Z,97766.56
2023-03-31T00:40:24.827Z,97760.25
2023-03-31T00:42:52.122Z,97763.81
2023-03-31T00:45:23.908Z,97761.06
2023-03-31T00:48:06.192Z,97762.28
2023-03-31T00:50:36.107Z,97756.38
2023-03-31T00:53:14.359Z,97753.25
2023-03-31T00:55:46.056Z,97755.63
2023-03-31T00:58:15.309Z,97755.63
2023-03-31T01:00:42.928Z,97755.63
2023-03-31T01:03:10.490Z,97758.41
2023-03-31T01:05:45.974Z,97757.22
2023-03-31T01:08:14.995Z,97752.06
2023-03-31T01:10:46.585Z,97741.38
2023-03-31T01:13:15.347Z,97743.78
2023-03-31T01:15:42.645Z,97736.31
2023-03-31T01:18:11.718Z,97731.97
2023-03-31T01:21:06.766Z,97730.78
2023-03-31T01:23:48.141Z,97727.22
2023-03-31T01:26:42.356Z,97711.47
2023-03-31T01:29:27.784Z,97714.59
2023-03-31T01:32:51.944Z,97715.38
2023-03-31T01:35:40.365Z,97710.28
2023-03-31T01:38:16.485Z,97712.63
2023-03-31T01:41:21.508Z,97707.13
2023-03-31T01:44:23.175Z,97713.84
2023-03-31T01:47:09.293Z,97701.25
2023-03-31T01:49:54.290Z,97707.94
2023-03-31T01:52:41.380Z,97706.03
2023-03-31T01:55:30.062Z,97698.94
2023-03-31T01:58:14.242Z,97711.56
2023-03-31T02:00:57.003Z,97708.81
2023-03-31T02:03:33.130Z,97707.22
2023-03-31T02:06:08.742Z,97700.94
2023-03-31T02:08:45.396Z,97694.22
2023-03-31T02:11:13.100Z,97698.94
2023-03-31T02:13:44.603Z,97698.19
2023-03-31T02:16:19.063Z,97699.75
2023-03-31T02:18:48.443Z,97689.50
2023-03-31T02:21:16.584Z,97696.59
2023-03-31T02:23:45.439Z,97697.34
2023-03-31T02:26:20.788Z,97687.53
2023-03-31T02:28:47.439Z,97689.50
2023-03-31T02:31:21.580Z,97693.44
2023-03-31T02:33:49.420Z,97698.56
2023-03-31T02:36:17.398Z,97692.69
2023-03-31T02:38:50.386Z,97696.63
2023-03-31T02:41:17.090Z,97695.03
2023-03-31T02:43:43.858Z,97695.03
2023-03-31T02:46:11.769Z,97685.56
2023-03-31T02:48:47.504Z,97690.31
2023-03-31T02:51:17.690Z,97691.91
2023-03-31T02:54:02.391Z,97692.34
2023-03-31T02:56:44.507Z,97688.41
2023-03-31T02:59:32.399Z,97691.19
2023-03-31T03:02:09.194Z,97693.53
2023-03-31T03:04:49.800Z,97688.03
2023-03-31T03:07:16.412Z,97686.47
2023-03-31T03:09:56.755Z,97687.66
2023-03-31T03:12:38.490Z,97692.00
2023-03-31T03:15:17.337Z,97693.16
2023-03-31T03:17:54.671Z,97677.78
2023-03-31T03:20:22.463Z,97693.53
2023-03-31T03:22:49.191Z,97684.09
2023-03-31T03:25:18.236Z,97684.53
2023-03-31T03:27:44.970Z,97692.44
2023-03-31T03:30:13.489Z,97693.63
2023-03-31T03:32:41.455Z,97684.91
2023-03-31T03:35:08.861Z,97689.69
2023-03-31T03:37:35.798Z,97692.81
2023-03-31T03:40:06.045Z,97689.69
2023-03-31T03:42:33.664Z,97688.47
2023-03-31T03:45:01.440Z,97687.28
2023-03-31T03:47:28.676Z,97690.41
2023-03-31T03:49:55.909Z,97691.59
2023-03-31T03:52:22.561Z,97696.75
2023-03-31T03:54:49.342Z,97702.25
2023-03-31T03:57:17.185Z,97702.25
2023-03-31T03:59:43.968Z,97700.28
2023-03-31T04:02:10.899Z,97698.72
2023-03-31T04:04:37.659Z,97704.22
2023-03-31T04:07:05.021Z,97706.22
2023-03-31T04:09:31.826Z,97699.50
2023-03-31T04:11:58.754Z,97703.06
2023-03-31T04:14:26.165Z,97709.38
2023-03-31T04:16:56.234Z,97707.84
2023-03-31T04:19:26.065Z,97711.78
2023-03-31T04:21:58.954Z,97715.31
2023-03-31T04:24:30.794Z,97716.13
2023-03-31T04:26:58.040Z,97717.28
2023-03-31T04:29:26.646Z,97720.41
2023-03-31T04:31:58.812Z,97719.59
2023-03-31T04:34:35.633Z,97720.31
2023-03-31T04:37:03.507Z,97732.94
2023-03-31T04:39:31.107Z,97729.38
2023-03-31T04:41:59.106Z,97737.66
2023-03-31T04:44:26.137Z,97744.31
2023-03-31T04:46:53.470Z,97751.00
2023-03-31T04:49:20.503Z,97742.66
2023-03-31T04:51:47.292Z,97746.22
2023-03-31T04:54:13.984Z,97752.53
2023-03-31T04:56:40.686Z,97758.84
2023-03-31T04:59:08.507Z,97758.03
2023-03-31T05:01:36.597Z,97753.28
2023-03-31T05:04:05.445Z,97750.94
2023-03-31T05:06:32.839Z,97759.22
2023-03-31T05:08:59.540Z,97757.63
2023-03-31T05:11:26.485Z,97763.56
2023-03-31T05:13:53.332Z,97772.28
2023-03-31T05:16:21.609Z,97773.44
2023-03-31T05:18:48.389Z,97776.22
2023-03-31T05:21:21.580Z,97773.03
2023-03-31T05:23:49.041Z,97776.19
2023-03-31T05:26:16.417Z,97771.84
2023-03-31T05:28:43.865Z,97777.00
2023-03-31T05:31:13.025Z,97782.53
2023-03-31T05:33:42.166Z,97784.50
2023-03-31T05:36:12.192Z,97793.56
2023-03-31T05:38:39.852Z,97802.25
2023-03-31T05:41:10.021Z,97809.34
2023-03-31T05:43:37.853Z,97812.09
2023-03-31T05:46:05.210Z,97807.75
2023-03-31T05:48:32.424Z,97823.94
2023-03-31T05:51:00.872Z,97824.31
2023-03-31T05:53:28.240Z,97831.44
2023-03-31T05:56:02.299Z,97846.00
2023-03-31T05:58:29.511Z,97845.22
2023-03-31T06:01:08.735Z,97853.50
2023-03-31T06:03:37.524Z,97856.63
2023-03-31T06:06:08.323Z,97860.59
2023-03-31T06:08:36.338Z,97864.91
2023-03-31T06:11:14.412Z,97860.19
2023-03-31T06:13:41.331Z,97864.13
2023-03-31T06:16:08.390Z,97865.28
2023-03-31T06:18:36.646Z,97862.53
2023-03-31T06:21:04.192Z,97869.63
2023-03-31T06:23:31.815Z,97875.16
2023-03-31T06:26:04.248Z,97877.91
2023-03-31T06:28:31.326Z,97886.19
2023-03-31T06:31:06.428Z,97894.47
2023-03-31T06:33:34.553Z,97892.09
2023-03-31T06:36:04.286Z,97911.03
2023-03-31T06:38:31.732Z,97906.28
2023-03-31T06:40:58.484Z,97915.34
2023-03-31T06:43:25.346Z,97917.34
2023-03-31T06:45:56.169Z,97915.75
2023-03-31T06:48:25.172Z,97927.53
2023-03-31T06:50:53.701Z,97933.84
2023-03-31T06:53:22.480Z,97940.94
2023-03-31T06:55:49.833Z,97937.78
2023-03-31T06:58:16.647Z,97943.28
2023-03-31T07:00:45.303Z,97954.69
2023-03-31T07:03:13.214Z,97958.25
2023-03-31T07:05:40.188Z,97958.63
2023-03-31T07:08:06.830Z,97947.94
2023-03-31T07:10:33.549Z,97961.38
2023-03-31T07:13:00.447Z,97966.88
2023-03-31T07:15:28.430Z,97970.84
2023-03-31T07:18:02.154Z,97981.50
2023-03-31T07:20:30.697Z,97983.47
2023-03-31T07:22:57.502Z,97995.69
2023-03-31T07:25:24.270Z,98001.19
2023-03-31T07:27:51.019Z,98006.31
2023-03-31T07:30:20.157Z,97997.59
2023-03-31T07:32:48.301Z,98008.63
2023-03-31T07:35:15.245Z,98009.00
2023-03-31T07:37:44.297Z,98019.63
2023-03-31T07:40:15.663Z,98022.00
2023-03-31T07:42:43.395Z,98026.69
2023-03-31T07:45:10.784Z,98033.38
2023-03-31T07:47:39.448Z,98042.44
2023-03-31T07:50:07.447Z,98041.66
2023-03-31T07:52:34.487Z,98044.41
2023-03-31T07:55:01.223Z,98042.44
2023-03-31T07:57:27.989Z,98050.72
2023-03-31T07:59:54.680Z,98060.19
2023-03-31T08:02:21.386Z,98062.50
2023-03-31T08:04:48.299Z,98066.44
2023-03-31T08:07:16.699Z,98074.72
2023-03-31T08:09:45.466Z,98073.94
2023-03-31T08:12:12.851Z,98076.31
2023-03-31T08:14:41.696Z,98084.25
2023-03-31T08:17:09.739Z,98097.69
2023-03-31T08:19:36.608Z,98102.00
2023-03-31T08:22:03.996Z,98100.44
2023-03-31T08:24:30.744Z,98111.09
2023-03-31T08:26:57.464Z,98106.34
2023-03-31T08:29:24.104Z,98111.09
2023-03-31T08:31:51.049Z,98115.44
2023-03-31T08:34:18.804Z,98120.19
2023-03-31T08:36:45.430Z,98125.69
2023-03-31T08:39:13.066Z,98125.69
2023-03-31T08:42:03.246Z,98128.47
2023-03-31T08:44:41.952Z,98130.00
2023-03-31T08:47:16.094Z,98139.50
2023-03-31T08:49:48.443Z,98147.38
2023-03-31T08:52:23.492Z,98147.31
2023-03-31T08:54:56.681Z,98146.50
2023-03-31T08:57:32.086Z,98158.72
2023-03-31T09:00:06.925Z,98156.75
2023-03-31T09:02:49.934Z,98159.06
2023-03-31T09:05:46.138Z,98161.44
2023-03-31T09:08:34.178Z,98164.22
2023-03-31T09:11:11.488Z,98170.53
2023-03-31T09:13:45.105Z,98166.97
2023-03-31T09:16:17.014Z,98178.03
2023-03-31T09:18:47.245Z,98179.56
2023-03-31T09:21:32.446Z,98177.16
2023-03-31T09:24:11.760Z,98188.59
2023-03-31T09:26:44.882Z,98188.94
2023-03-31T09:29:30.238Z,98195.25
2023-03-31T09:32:18.612Z,98198.38
2023-03-31T09:34:47.220Z,98206.22
2023-03-31T09:37:14.036Z,98212.53
2023-03-31T09:39:41.025Z,98208.97
2023-03-31T09:42:12.639Z,98221.19
2023-03-31T09:44:50.101Z,98220.41
2023-03-31T09:47:19.500Z,98229.06
2023-03-31T09:49:53.698Z,98227.47
2023-03-31T09:52:32.772Z,98239.34
2023-03-31T09:55:03.219Z,98237.75
2023-03-31T09:57:36.334Z,98244.84
2023-03-31T10:00:21.360Z,98248.75
2023-03-31T10:02:54.118Z,98255.06
2023-03-31T10:05:36.637Z,98271.25
2023-03-31T10:08:21.750Z,98273.19
2023-03-31T10:11:05.225Z,98276.78
2023-03-31T10:13:44.122Z,98276.78
2023-03-31T10:16:15.455Z,98275.63
2023-03-31T10:18:43.731Z,98285.50
2023-03-31T10:21:22.566Z,98286.72
2023-03-31T10:23:51.353Z,98293.47
2023-03-31T10:26:24.244Z,98295.47
2023-03-31T10:28:55.466Z,98300.56
2023-03-31T10:31:27.246Z,98311.19
2023-03-31T10:33:55.127Z,98309.97
2023-03-31T10:36:26.436Z,98316.66
2023-03-31T10:38:54.773Z,98321.78
2023-03-31T10:41:25.014Z,98319.81
2023-03-31T10:43:56.082Z,98322.94
2023-03-31T10:46:50.369Z,98329.63
2023-03-31T10:49:22.813Z,98330.00
2023-03-31T10:51:56.542Z,98337.09
2023-03-31T10:54:24.811Z,98340.22
2023-03-31T10:57:03.676Z,98342.53
2023-03-31T10:59:41.191Z,98344.94
2023-03-31T11:02:32.665Z,98341.72
2023-03-31T11:05:25.758Z,98354.78
2023-03-31T11:07:58.500Z,98359.59
2023-03-31T11:10:59.672Z,98360.81
2023-03-31T11:13:34.891Z,98360.81
2023-03-31T11:16:35.719Z,98378.97
2023-03-31T11:19:22.396Z,98377.44
2023-03-31T11:22:04.611Z,98378.25
2023-03-31T11:24:37.999Z,98386.56
2023-03-31T11:27:13.816Z,98390.91
2023-03-31T11:29:49.544Z,98396.84
2023-03-31T11:32:40.870Z,98407.09
2023-03-31T11:35:16.924Z,98402.72
2023-03-31T11:37:53.024Z,98418.47
2023-03-31T11:40:40.064Z,98415.63
2023-03-31T11:43:36.383Z,98418.38
2023-03-31T11:46:15.380Z,98424.72
2023-03-31T11:48:52.369Z,98431.00
2023-03-31T11:51:44.556Z,98439.69
2023-03-31T11:54:19.263Z,98440.91
2023-03-31T11:56:46.692Z,98436.56
2023-03-31T11:59:17.141Z,98452.81
2023-03-31T12:01:52.870Z,98446.88
2023-03-31T12:04:40.557Z,98461.13
2023-03-31T12:07:29.583Z,98461.13
2023-03-31T12:10:15.217Z,98469.00
2023-03-31T12:13:01.256Z,98469.78
2023-03-31T12:15:33.976Z,98468.94
2023-03-31T12:18:04.570Z,98476.38
2023-03-31T12:20:39.897Z,98478.34
2023-03-31T12:23:14.039Z,98477.53
2023-03-31T12:25:51.580Z,98491.72
2023-03-31T12:28:19.942Z,98485.41
2023-03-31T12:30:48.361Z,98486.94
2023-03-31T12:33:42.360Z,98496.41
2023-03-31T12:36:27.062Z,98489.19
2023-03-31T12:39:13.833Z,98498.59
2023-03-31T12:42:04.998Z,98504.81
2023-03-31T12:44:32.673Z,98504.72
2023-03-31T12:47:09.374Z,98504.97
2023-03-31T12:49:52.761Z,98503.69
2023-03-31T12:53:02.619Z,98513.91
2023-03-31T12:55:32.808Z,98513.06
2023-03-31T12:58:22.770Z,98518.59
2023-03-31T13:01:14.818Z,98527.25
2023-03-31T13:03:54.987Z,98526.44
2023-03-31T13:06:27.930Z,98530.75
2023-03-31T13:09:04.538Z,98533.09
2023-03-31T13:11:34.091Z,98546.16
2023-03-31T13:14:11.863Z,98546.97
2023-03-31T13:16:38.739Z,98550.25
2023-03-31T13:19:06.061Z,98544.81
2023-03-31T13:21:53.384Z,98559.19
2023-03-31T13:24:23.541Z,98558.41
2023-03-31T13:26:54.122Z,98561.91
2023-03-31T13:29:26.346Z,98565.47
2023-03-31T13:32:02.101Z,98565.81
2023-03-31T13:34:31.138Z,98567.78
2023-03-31T13:37:13.082Z,98578.88
2023-03-31T13:39:48.749Z,98574.06
2023-03-31T13:42:40.297Z,98580.50
2023-03-31T13:45:07.277Z,98583.72
2023-03-31T13:48:03.056Z,98596.81
2023-03-31T13:50:54.037Z,98590.81
2023-03-31T13:53:39.524Z,98594.78
2023-03-31T13:56:28.384Z,98595.63
2023-03-31T13:59:18.955Z,98605.88
2023-03-31T14:01:45.841Z,98600.22
2023-03-31T14:04:39.958Z,98596.97
2023-03-31T14:07:13.445Z,98614.41
2023-03-31T14:09:49.780Z,98611.13
2023-03-31T14:12:34.165Z,98623.03
2023-03-31T14:15:01.540Z,98620.25
2023-03-31T14:17:38.190Z,98625.44
2023-03-31T14:20:33.547Z,98621.50
2023-03-31T14:23:41.531Z,98630.28
2023-03-31T14:26:47.172Z,98631.06
2023-03-31T14:29:43.159Z,98640.63
2023-03-31T14:35:23.949Z,98645.00
2023-03-31T14:37:51.215Z,98655.75
2023-03-31T14:40:18.657Z,98651.78
2023-03-31T14:42:49.801Z,98660.03
2023-03-31T14:45:16.616Z,98663.59
2023-03-31T14:47:43.446Z,98658.03
2023-03-31T14:50:16.340Z,98669.13
2023-03-31T14:52:51.471Z,98669.13
2023-03-31T14:55:25.188Z,98671.88
2023-03-31T14:57:58.687Z,98681.78
2023-03-31T15:00:29.803Z,98674.19
2023-03-31T15:02:59.029Z,98673.41
2023-03-31T15:05:34.710Z,98683.72
2023-03-31T15:08:05.064Z,98686.13
2023-03-31T15:10:45.722Z,98689.69
2023-03-31T15:14:04.253Z,98691.66
2023-03-31T15:16:43.443Z,98691.34
2023-03-31T15:19:22.940Z,98701.66
2023-03-31T15:22:02.369Z,98701.69
2023-03-31T15:24:30.112Z,98709.69
2023-03-31T15:27:16.376Z,98708.13
2023-03-31T15:29:52.824Z,98710.50
2023-03-31T15:32:25.478Z,98724.81
2023-03-31T15:34:52.756Z,98718.47
2023-03-31T15:37:37.213Z,98725.25
2023-03-31T15:40:09.452Z,98732.84
2023-03-31T15:42:37.080Z,98741.63
2023-03-31T15:45:21.032Z,98742.44
2023-03-31T15:47:54.186Z,98748.84
2023-03-31T15:50:23.262Z,98750.47
2023-03-31T15:52:54.822Z,98752.09
2023-03-31T15:55:41.246Z,98750.53
2023-03-31T15:58:15.732Z,98751.31
2023-03-31T16:00:52.476Z,98763.22
2023-03-31T16:03:28.823Z,98762.00
2023-03-31T16:06:03.569Z,98765.56
2023-03-31T16:08:57.931Z,98769.16
2023-03-31T16:11:36.542Z,98769.97
2023-03-31T16:14:11.732Z,98771.19
2023-03-31T16:16:40.415Z,98770.81
2023-03-31T16:19:10.952Z,98775.56
2023-03-31T16:21:42.442Z,98782.31
2023-03-31T16:24:09.893Z,98788.66
2023-03-31T16:26:37.545Z,98792.63
2023-03-31T16:29:05.461Z,98801.38
2023-03-31T16:31:35.266Z,98803.69
2023-03-31T16:34:05.552Z,98809.97
2023-03-31T16:36:32.260Z,98808.00
2023-03-31T16:39:01.897Z,98821.06
2023-03-31T16:41:29.744Z,98815.09
2023-03-31T16:43:56.626Z,98821.41
2023-03-31T16:46:24.118Z,98831.75
2023-03-31T16:48:51.794Z,98835.28
2023-03-31T16:51:19.642Z,98843.97
2023-03-31T16:53:47.799Z,98846.34
2023-03-31T16:56:14.765Z,98855.09
2023-03-31T16:58:41.602Z,98854.34
2023-03-31T17:01:10.112Z,98857.53
2023-03-31T17:03:38.433Z,98869.47
2023-03-31T17:06:11.423Z,98870.31
2023-03-31T17:08:39.893Z,98864.78
2023-03-31T17:11:12.682Z,98872.69
2023-03-31T17:13:41.883Z,98883.81
2023-03-31T17:16:19.121Z,98880.66
2023-03-31T17:18:51.202Z,98882.66
2023-03-31T17:21:22.006Z,98894.94
2023-03-31T17:23:49.816Z,98891.81
2023-03-31T17:26:18.517Z,98902.84
2023-03-31T17:28:45.597Z,98911.19
2023-03-31T17:31:20.127Z,98921.06
2023-03-31T17:33:47.579Z,98921.09
2023-03-31T17:36:15.667Z,98925.81
2023-03-31T17:38:42.823Z,98928.19
2023-03-31T17:41:12.970Z,98933.34
2023-03-31T17:43:40.382Z,98940.44
2023-03-31T17:46:12.892Z,98942.03
2023-03-31T17:48:40.424Z,98948.75
2023-03-31T17:51:09.572Z,98953.50
2023-03-31T17:53:36.512Z,98959.84
2023-03-31T17:56:04.474Z,98963.78
2023-03-31T17:58:33.714Z,98958.25
2023-03-31T18:01:00.566Z,98970.91
2023-03-31T18:03:30.859Z,98970.09
2023-03-31T18:06:02.165Z,98975.63
2023-03-31T18:08:30.101Z,98976.03
2023-03-31T18:10:56.887Z,98978.81
2023-03-31T18:13:24.428Z,98987.53
2023-03-31T18:15:52.972Z,98984.34
2023-03-31T18:18:21.375Z,98992.25
2023-03-31T18:20:48.046Z,98995.41
2023-03-31T18:23:15.057Z,98993.41
2023-03-31T18:25:46.334Z,99000.94
2023-03-31T18:28:17.271Z,99000.94
2023-03-31T18:30:44.245Z,99004.50
2023-03-31T18:33:11.632Z,99007.66
2023-03-31T18:35:39.331Z,99014.34
2023-03-31T18:38:07.236Z,99023.84
2023-03-31T18:40:34.072Z,99023.81
2023-03-31T18:43:00.755Z,99026.97
2023-03-31T18:45:28.320Z,99034.50
2023-03-31T18:47:55.129Z,99043.56
2023-03-31T18:50:23.352Z,99047.53
2023-03-31T18:52:54.560Z,99054.25
2023-03-31T18:55:22.260Z,99056.63
2023-03-31T18:57:49.283Z,99060.94
2023-03-31T19:00:17.321Z,99071.22
2023-03-31T19:02:44.250Z,99075.97
2023-03-31T19:05:11.202Z,99087.00
2023-03-31T19:07:37.921Z,99091.34
2023-03-31T19:10:06.395Z,99100.41
2023-03-31T19:12:34.004Z,99108.31
2023-03-31T19:15:00.637Z,99106.69
2023-03-31T19:17:27.470Z,99112.25
2023-03-31T19:19:54.146Z,99116.19
2023-03-31T19:22:20.936Z,99120.13
2023-03-31T19:24:47.638Z,99119.31
2023-03-31T19:27:14.294Z,99120.91
2023-03-31T19:29:41.058Z,99122.06
2023-03-31T19:32:07.824Z,99138.28
2023-03-31T19:34:34.585Z,99132.34
2023-03-31T19:37:02.737Z,99139.84
2023-03-31T19:39:29.614Z,99141.81
2023-03-31T19:41:56.289Z,99145.75
2023-03-31T19:44:23.006Z,99145.75
2023-03-31T19:46:49.694Z,99151.75
2023-03-31T19:49:16.597Z,99154.13
2023-03-31T19:51:43.360Z,99158.09
2023-03-31T19:54:11.796Z,99162.81
2023-03-31T19:56:39.367Z,99162.06
2023-03-31T19:59:06.455Z,99167.59
2023-03-31T20:01:33.589Z,99170.75
2023-03-31T20:04:00.986Z,99175.53
2023-03-31T20:06:30.822Z,99180.66
2023-03-31T20:08:59.933Z,99185.00
2023-03-31T20:11:27.863Z,99184.97
2023-03-31T20:13:55.876Z,99191.69
2023-03-31T20:16:25.825Z,99195.22
2023-03-31T20:18:56.741Z,99203.13
2023-03-31T20:21:27.275Z,99210.22
2023-03-31T20:23:54.998Z,99215.72
2023-03-31T20:26:25.169Z,99215.69
2023-03-31T20:28:54.329Z,99219.63
2023-03-31T20:31:26.188Z,99223.16
2023-03-31T20:33:54.404Z,99223.91
2023-03-31T20:36:27.344Z,99232.22
2023-03-31T20:38:54.240Z,99244.47
2023-03-31T20:41:23.986Z,99241.31
2023-03-31T20:43:50.928Z,99245.97
2023-03-31T20:46:18.224Z,99247.94
2023-03-31T20:48:48.034Z,99253.03
2023-03-31T20:51:18.271Z,99254.22
2023-03-31T20:53:48.773Z,99261.25
2023-03-31T20:56:27.731Z,99260.84
2023-03-31T20:58:57.430Z,99272.25
2023-03-31T21:01:24.934Z,99280.88
2023-03-31T21:03:53.085Z,99273.34
2023-03-31T21:06:20.082Z,99280.84
2023-03-31T21:08:51.926Z,99280.06
2023-03-31T21:11:18.675Z,99277.25
2023-03-31T21:13:45.635Z,99272.91
2023-03-31T21:16:12.732Z,99278.00
2023-03-31T21:18:39.586Z,99283.53
2023-03-31T21:21:16.029Z,99290.25
2023-03-31T21:23:42.867Z,99285.47
2023-03-31T21:26:13.035Z,99286.59
2023-03-31T21:28:39.755Z,99290.88
2023-03-31T21:31:12.595Z,99303.47
2023-03-31T21:33:41.797Z,99302.66
2023-03-31T21:36:12.200Z,99307.38
2023-03-31T21:38:39.008Z,99307.38
2023-03-31T21:41:11.401Z,99318.44
2023-03-31T21:43:38.611Z,99316.47
2023-03-31T21:46:06.775Z,99308.19
2023-03-31T21:48:34.680Z,99319.19
2023-03-31T21:51:02.959Z,99320.78
2023-03-31T21:53:31.579Z,99319.63
2023-03-31T21:55:58.753Z,99327.16
2023-03-31T21:58:28.751Z,99327.91
2023-03-31T22:00:58.337Z,99333.88
2023-03-31T22:03:28.738Z,99335.03
2023-03-31T22:05:57.143Z,99340.97
2023-03-31T22:08:24.937Z,99342.56
2023-03-31T22:10:52.249Z,99341.41
2023-03-31T22:13:21.186Z,99352.88
2023-03-31T22:15:48.301Z,99350.88
2023-03-31T22:18:17.118Z,99353.22
2023-03-31T22:20:45.075Z,99345.25
2023-03-31T22:23:12.075Z,99358.63
2023-03-31T22:25:38.851Z,99353.88
2023-03-31T22:28:07.113Z,99370.44
2023-03-31T22:30:34.164Z,99364.47
2023-03-31T22:33:01.397Z,99362.09
2023-03-31T22:35:28.694Z,99371.19
2023-03-31T22:37:55.716Z,99371.94
2023-03-31T22:40:22.516Z,99379.81
2023-03-31T22:42:49.207Z,99379.00
2023-03-31T22:45:15.932Z,99388.44
2023-03-31T22:47:42.637Z,99380.13
2023-03-31T22:50:10.601Z,99378.53
2023-03-31T22:52:37.595Z,99382.81
2023-03-31T22:55:04.785Z,99390.31
2023-03-31T22:57:32.160Z,99392.34
2023-03-31T22:59:59.009Z,99403.38
2023-03-31T23:02:25.989Z,99407.31
2023-03-31T23:04:52.655Z,99403.75
2023-03-31T23:07:21.922Z,99401.34
2023-03-31T23:09:48.995Z,99415.16
2023-03-31T23:12:15.990Z,99411.25
2023-03-31T23:14:42.725Z,99425.06
2023-03-31T23:17:09.355Z,99427.09
2023-03-31T23:19:37.224Z,99429.41
2023-03-31T23:22:03.991Z,99433.34
2023-03-31T23:24:30.710Z,99440.47
2023-03-31T23:26:57.340Z,99439.31
2023-03-31T23:29:24.030Z,99444.41
2023-03-31T23:31:50.751Z,99448.00
2023-03-31T23:34:17.570Z,99449.97
2023-03-31T23:36:44.303Z,99450.44
2023-03-31T23:39:11.042Z,99456.31
2023-03-31T23:41:39.926Z,99459.06
2023-03-31T23:44:06.893Z,99466.63
2023-03-31T23:46:33.861Z,99467.44
2023-03-31T23:49:02.775Z,99470.59
2023-03-31T23:51:29.484Z,99473.00
2023-03-31T23:53:56.385Z,99478.50
2023-03-31T23:56:23.188Z,99471.41
2023-03-31T23:58:50.029Z,99481.25
